Time,TemperatureF,DewpointF,PressureIn,WindDirection,WindDirectionDegrees,WindSpeedMPH,WindSpeedGustMPH,Humidity,HourlyPrecipIn,Conditions,Clouds,dailyrainin,SoftwareType,DateUTC
2013-10-27 00:01:00,46.5,29.8,29.84,SSW,203,2.0,3.0,52,0.00,,,0.00,LWC V2.10 B1813,2013-10-27 04:01:00,
2013-10-27 00:02:00,46.5,29.8,29.84,SSW,211,1.0,3.0,52,0.00,,,0.00,LWC V2.10 B1813,2013-10-27 04:02:00,
2013-10-27 00:06:00,46.5,29.4,29.83,SW,236,0.0,3.0,51,0.00,,,0.00,LWC V2.10 B1813,2013-10-27 04:06:00,
2013-10-27 00:11:00,46.0,30.3,29.84,SW,236,1.0,1.0,54,0.00,,,0.00,LWC V2.10 B1813,2013-10-27 04:11:00,
2013-10-27 00:16:00,45.7,29.1,29.83,SSW,196,2.0,4.0,52,0.00,,,0.00,LWC V2.10 B1813,2013-10-27 04:16:00,
2013-10-27 00:21:00,45.8,30.1,29.83,SSW,198,0.0,1.0,54,0.00,,,0.00,LWC V2.10 B1813,2013-10-27 04:21:00,
2013-10-27 00:28:00,45.0,30.3,29.83,South,178,0.0,0.0,56,0.00,,,0.00,LWC V2.10 B1813,2013-10-27 04:28:00,
2013-10-27 00:33:00,44.8,31.4,29.83,South,178,0.0,0.0,59,0.00,,,0.00,LWC V2.10 B1813,2013-10-27 04:33:00,
2013-10-27 00:38:00,44.2,30.4,29.83,South,185,0.0,3.0,58,0.00,,,0.00,LWC V2.10 B1813,2013-10-27 04:38:00,
2013-10-27 00:43:00,44.3,31.7,29.83,South,185,0.0,0.0,61,0.00,,,0.00,LWC V2.10 B1813,2013-10-27 04:43:00,
2013-10-27 00:48:00,44.2,30.8,29.83,South,185,0.0,0.0,59,0.00,,,0.00,LWC V2.10 B1813,2013-10-27 04:48:00,
2013-10-27 00:53:00,44.1,30.7,29.83,South,184,2.0,2.0,59,0.00,,,0.00,LWC V2.10 B1813,2013-10-27 04:53:00,
2013-10-27 00:58:00,44.4,31.4,29.83,South,186,0.0,1.0,60,0.00,,,0.00,LWC V2.10 B1813,2013-10-27 04:58:00,
2013-10-27 01:03:00,44.3,30.5,29.83,South,177,0.0,3.0,58,0.00,,,0.00,LWC V2.10 B1813,2013-10-27 05:03:00,
2013-10-27 01:09:00,44.9,30.6,29.83,South,182,0.0,1.0,57,0.00,,,0.00,LWC V2.10 B1813,2013-10-27 05:09:00,
2013-10-27 01:14:00,44.8,31.4,29.83,South,182,0.0,0.0,59,0.00,,,0.00,LWC V2.10 B1813,2013-10-27 05:14:00,
2013-10-27 01:19:00,44.7,30.4,29.83,South,182,0.0,0.0,57,0.00,,,0.00,LWC V2.10 B1813,2013-10-27 05:19:00,
2013-10-27 01:24:00,44.5,30.7,29.83,South,182,0.0,1.0,58,0.00,,,0.00,LWC V2.10 B1813,2013-10-27 05:24:00,
2013-10-27 01:29:00,44.6,30.7,29.83,South,182,1.0,2.0,58,0.00,,,0.00,LWC V2.10 B1813,2013-10-27 05:29:00,
2013-10-27 01:34:00,45.3,30.5,29.83,South,191,3.0,4.0,56,0.00,,,0.00,LWC V2.10 B1813,2013-10-27 05:34:00,
2013-10-27 01:39:00,45.7,30.0,29.83,SSW,212,4.0,6.0,54,0.00,,,0.00,LWC V2.10 B1813,2013-10-27 05:39:00,
2013-10-27 01:44:00,46.1,30.4,29.83,SSW,212,0.0,1.0,54,0.00,,,0.00,LWC V2.10 B1813,2013-10-27 05:44:00,
2013-10-27 01:50:00,45.8,30.1,29.83,SSW,192,2.0,2.0,54,0.00,,,0.00,LWC V2.10 B1813,2013-10-27 05:50:00,
2013-10-27 01:55:00,45.8,30.1,29.83,SSW,192,0.0,1.0,54,0.00,,,0.00,LWC V2.10 B1813,2013-10-27 05:55:00,
2013-10-27 02:00:00,45.9,31.5,29.83,West,260,0.0,1.0,57,0.00,,,0.00,LWC V2.10 B1813,2013-10-27 06:00:00,
2013-10-27 02:05:00,45.9,30.7,29.83,SSW,212,5.0,5.0,55,0.00,,,0.00,LWC V2.10 B1813,2013-10-27 06:05:00,
2013-10-27 02:10:00,45.7,30.9,29.83,SW,236,1.0,2.0,56,0.00,,,0.00,LWC V2.10 B1813,2013-10-27 06:10:00,
2013-10-27 02:16:00,45.7,31.3,29.83,West,281,2.0,6.0,57,0.00,,,0.00,LWC V2.10 B1813,2013-10-27 06:16:00,
2013-10-27 02:21:00,45.3,31.4,29.83,SW,227,2.0,3.0,58,0.00,,,0.00,LWC V2.10 B1813,2013-10-27 06:21:00,
2013-10-27 02:26:00,44.9,32.3,29.83,WSW,249,0.0,3.0,61,0.00,,,0.00,LWC V2.10 B1813,2013-10-27 06:26:00,
2013-10-27 02:31:00,44.7,32.1,29.83,SE,132,1.0,5.0,61,0.00,,,0.00,LWC V2.10 B1813,2013-10-27 06:31:00,
2013-10-27 02:36:00,44.6,32.4,29.83,WNW,294,0.0,1.0,62,0.00,,,0.00,LWC V2.10 B1813,2013-10-27 06:36:00,
2013-10-27 02:41:00,44.5,32.7,29.83,WSW,242,0.0,2.0,63,0.00,,,0.00,LWC V2.10 B1813,2013-10-27 06:41:00,
2013-10-27 02:46:00,44.4,32.6,29.83,SSW,207,0.0,2.0,63,0.00,,,0.00,LWC V2.10 B1813,2013-10-27 06:46:00,
2013-10-27 02:51:00,44.3,32.9,29.83,SSW,207,2.0,6.0,64,0.00,,,0.00,LWC V2.10 B1813,2013-10-27 06:51:00,
2013-10-27 02:56:00,44.2,33.6,29.83,SW,219,2.0,4.0,66,0.00,,,0.00,LWC V2.10 B1813,2013-10-27 06:56:00,
2013-10-27 03:01:00,44.1,33.5,29.82,SW,224,6.0,6.0,66,0.00,,,0.00,LWC V2.10 B1813,2013-10-27 07:01:00,
2013-10-27 03:06:00,44.0,33.8,29.82,SSW,207,3.0,7.0,67,0.00,,,0.00,LWC V2.10 B1813,2013-10-27 07:06:00,
2013-10-27 03:11:00,43.6,34.1,29.83,SW,214,1.0,3.0,69,0.00,,,0.00,LWC V2.10 B1813,2013-10-27 07:11:00,
2013-10-27 03:16:00,43.5,34.0,29.82,SW,219,1.0,4.0,69,0.00,,,0.00,LWC V2.10 B1813,2013-10-27 07:16:00,
2013-10-27 03:21:00,43.5,34.4,29.82,SW,223,1.0,3.0,70,0.00,,,0.00,LWC V2.10 B1813,2013-10-27 07:21:00,
2013-10-27 03:26:00,43.3,34.2,29.82,SW,228,2.0,2.0,70,0.00,,,0.00,LWC V2.10 B1813,2013-10-27 07:26:00,
2013-10-27 03:31:00,43.2,34.4,29.82,SSW,208,0.0,2.0,71,0.00,,,0.00,LWC V2.10 B1813,2013-10-27 07:31:00,
2013-10-27 03:36:00,43.0,34.6,29.81,SSW,209,0.0,1.0,72,0.00,,,0.00,LWC V2.10 B1813,2013-10-27 07:36:00,
2013-10-27 03:41:00,42.8,34.4,29.81,SSW,211,0.0,1.0,72,0.00,,,0.00,LWC V2.10 B1813,2013-10-27 07:41:00,
2013-10-27 03:46:00,42.8,34.8,29.81,SSW,211,0.0,0.0,73,0.00,,,0.00,LWC V2.10 B1813,2013-10-27 07:46:00,
2013-10-27 03:51:00,42.8,34.8,29.81,SSW,211,0.0,0.0,73,0.00,,,0.00,LWC V2.10 B1813,2013-10-27 07:51:00,
2013-10-27 03:56:00,42.8,34.8,29.81,SSW,212,0.0,1.0,73,0.00,,,0.00,LWC V2.10 B1813,2013-10-27 07:56:00,
2013-10-27 04:01:00,42.8,34.8,29.81,South,188,1.0,2.0,73,0.00,,,0.00,LWC V2.10 B1813,2013-10-27 08:01:00,
2013-10-27 04:07:00,42.9,34.9,29.81,South,188,1.0,1.0,73,0.00,,,0.00,LWC V2.10 B1813,2013-10-27 08:07:00,
2013-10-27 04:12:00,42.9,34.9,29.80,South,188,0.0,2.0,73,0.00,,,0.00,LWC V2.10 B1813,2013-10-27 08:12:00,
2013-10-27 04:17:00,43.1,34.7,29.81,SSW,207,0.0,0.0,72,0.00,,,0.00,LWC V2.10 B1813,2013-10-27 08:17:00,
2013-10-27 04:23:00,43.0,34.9,29.81,South,182,0.0,1.0,73,0.00,,,0.00,LWC V2.10 B1813,2013-10-27 08:23:00,
2013-10-27 04:28:00,43.1,34.3,29.81,SW,225,0.0,4.0,71,0.00,,,0.00,LWC V2.10 B1813,2013-10-27 08:28:00,
2013-10-27 04:33:00,43.4,34.3,29.80,SSE,163,0.0,1.0,70,0.00,,,0.00,LWC V2.10 B1813,2013-10-27 08:33:00,
2013-10-27 04:38:00,43.2,34.1,29.80,SSW,211,2.0,5.0,70,0.00,,,0.00,LWC V2.10 B1813,2013-10-27 08:38:00,
2013-10-27 04:43:00,43.2,33.7,29.81,SSW,209,1.0,2.0,69,0.00,,,0.00,LWC V2.10 B1813,2013-10-27 08:43:00,
2013-10-27 04:48:00,43.3,33.8,29.81,WSW,237,1.0,3.0,69,0.00,,,0.00,LWC V2.10 B1813,2013-10-27 08:48:00,
2013-10-27 04:53:00,43.6,33.7,29.81,SW,219,0.0,1.0,68,0.00,,,0.00,LWC V2.10 B1813,2013-10-27 08:53:00,
2013-10-27 04:58:00,43.5,34.0,29.81,WNW,286,2.0,3.0,69,0.00,,,0.00,LWC V2.10 B1813,2013-10-27 08:58:00,
2013-10-27 05:03:00,43.6,33.7,29.81,SW,229,0.0,1.0,68,0.00,,,0.00,LWC V2.10 B1813,2013-10-27 09:03:00,
2013-10-27 05:08:00,43.7,33.8,29.82,WSW,246,0.0,1.0,68,0.00,,,0.00,LWC V2.10 B1813,2013-10-27 09:08:00,
2013-10-27 05:13:00,43.8,33.6,29.82,WSW,246,5.0,5.0,67,0.00,,,0.00,LWC V2.10 B1813,2013-10-27 09:13:00,
2013-10-27 05:18:00,44.1,33.9,29.82,South,180,3.0,3.0,67,0.00,,,0.00,LWC V2.10 B1813,2013-10-27 09:18:00,
2013-10-27 05:23:00,44.1,33.5,29.82,South,186,2.0,4.0,66,0.00,,,0.00,LWC V2.10 B1813,2013-10-27 09:23:00,
2013-10-27 05:29:00,44.3,33.7,29.82,SW,227,2.0,3.0,66,0.00,,,0.00,LWC V2.10 B1813,2013-10-27 09:29:00,
2013-10-27 05:34:00,44.3,33.3,29.82,WNW,294,0.0,2.0,65,0.00,,,0.00,LWC V2.10 B1813,2013-10-27 09:34:00,
2013-10-27 05:39:00,44.2,33.6,29.82,SSE,167,1.0,2.0,66,0.00,,,0.00,LWC V2.10 B1813,2013-10-27 09:39:00,
2013-10-27 05:44:00,44.2,33.6,29.82,SW,224,1.0,4.0,66,0.00,,,0.00,LWC V2.10 B1813,2013-10-27 09:44:00,
2013-10-27 05:49:00,44.2,33.2,29.82,WSW,247,0.0,7.0,65,0.00,,,0.00,LWC V2.10 B1813,2013-10-27 09:49:00,
2013-10-27 05:54:00,44.2,33.2,29.83,WNW,288,1.0,6.0,65,0.00,,,0.00,LWC V2.10 B1813,2013-10-27 09:54:00,
2013-10-27 05:59:00,44.2,33.6,29.83,SW,224,0.0,1.0,66,0.00,,,0.00,LWC V2.10 B1813,2013-10-27 09:59:00,
2013-10-27 06:04:00,44.2,33.2,29.83,SW,223,2.0,3.0,65,0.00,,,0.00,LWC V2.10 B1813,2013-10-27 10:04:00,
2013-10-27 06:09:00,44.2,33.2,29.83,West,280,2.0,4.0,65,0.00,,,0.00,LWC V2.10 B1813,2013-10-27 10:09:00,
2013-10-27 06:14:00,44.2,33.6,29.83,SSW,205,2.0,3.0,66,0.00,,,0.00,LWC V2.10 B1813,2013-10-27 10:14:00,
2013-10-27 06:20:00,44.2,33.6,29.83,NW,315,1.0,3.0,66,0.00,,,0.00,LWC V2.10 B1813,2013-10-27 10:20:00,
2013-10-27 06:25:00,44.2,33.2,29.83,WNW,296,1.0,2.0,65,0.00,,,0.00,LWC V2.10 B1813,2013-10-27 10:25:00,
2013-10-27 06:30:00,44.2,33.6,29.84,West,268,1.0,1.0,66,0.00,,,0.00,LWC V2.10 B1813,2013-10-27 10:30:00,
2013-10-27 06:35:00,44.0,33.8,29.84,NW,315,1.0,2.0,67,0.00,,,0.00,LWC V2.10 B1813,2013-10-27 10:35:00,
2013-10-27 06:40:00,44.0,33.4,29.84,NW,315,0.0,0.0,66,0.00,,,0.00,LWC V2.10 B1813,2013-10-27 10:40:00,
2013-10-27 06:45:00,44.0,33.8,29.84,West,263,3.0,7.0,67,0.00,,,0.00,LWC V2.10 B1813,2013-10-27 10:45:00,
2013-10-27 06:50:00,44.0,33.4,29.84,NNW,337,1.0,5.0,66,0.00,,,0.00,LWC V2.10 B1813,2013-10-27 10:50:00,
2013-10-27 06:55:00,44.0,33.4,29.85,WNW,289,1.0,3.0,66,0.00,,,0.00,LWC V2.10 B1813,2013-10-27 10:55:00,
2013-10-27 07:00:00,44.0,33.4,29.84,WSW,244,0.0,3.0,66,0.00,,,0.00,LWC V2.10 B1813,2013-10-27 11:00:00,
2013-10-27 07:05:00,44.0,33.4,29.85,WSW,244,5.0,5.0,66,0.00,,,0.00,LWC V2.10 B1813,2013-10-27 11:05:00,
2013-10-27 07:10:00,43.9,33.3,29.85,SW,219,3.0,5.0,66,0.00,,,0.00,LWC V2.10 B1813,2013-10-27 11:10:00,
2013-10-27 07:15:00,43.9,33.7,29.86,NE,34,1.0,2.0,67,0.00,,,0.00,LWC V2.10 B1813,2013-10-27 11:15:00,
2013-10-27 07:20:00,44.0,33.4,29.85,West,263,0.0,4.0,66,0.00,,,0.00,LWC V2.10 B1813,2013-10-27 11:20:00,
2013-10-27 07:25:00,43.9,33.7,29.86,NW,310,1.0,5.0,67,0.00,,,0.00,LWC V2.10 B1813,2013-10-27 11:25:00,
2013-10-27 07:30:00,43.9,33.7,29.86,WNW,286,2.0,2.0,67,0.00,,,0.00,LWC V2.10 B1813,2013-10-27 11:30:00,
2013-10-27 07:35:00,43.9,33.7,29.86,SSW,202,0.0,1.0,67,0.00,,,0.00,LWC V2.10 B1813,2013-10-27 11:35:00,
2013-10-27 07:40:00,43.8,33.6,29.86,WNW,284,3.0,3.0,67,0.00,,,0.00,LWC V2.10 B1813,2013-10-27 11:40:00,
2013-10-27 07:45:00,43.8,33.6,29.86,WNW,292,2.0,4.0,67,0.00,,,0.00,LWC V2.10 B1813,2013-10-27 11:45:00,
2013-10-27 07:50:00,43.8,33.6,29.86,SW,225,2.0,4.0,67,0.00,,,0.00,LWC V2.10 B1813,2013-10-27 11:50:00,
2013-10-27 07:55:00,43.8,33.6,29.86,SSW,209,0.0,2.0,67,0.00,,,0.00,LWC V2.10 B1813,2013-10-27 11:55:00,
2013-10-27 08:00:00,43.8,33.9,29.86,SSW,209,0.0,0.0,68,0.00,,,0.00,LWC V2.10 B1813,2013-10-27 12:00:00,
2013-10-27 08:05:00,43.8,33.6,29.87,SE,134,1.0,5.0,67,0.00,,,0.00,LWC V2.10 B1813,2013-10-27 12:05:00,
2013-10-27 08:10:00,43.9,33.3,29.87,SSE,168,0.0,2.0,66,0.00,,,0.00,LWC V2.10 B1813,2013-10-27 12:10:00,
2013-10-27 08:15:00,44.0,33.4,29.87,SSE,168,0.0,1.0,66,0.00,,,0.00,LWC V2.10 B1813,2013-10-27 12:15:00,
2013-10-27 08:20:00,43.9,33.7,29.87,South,186,0.0,5.0,67,0.00,,,0.00,LWC V2.10 B1813,2013-10-27 12:20:00,
2013-10-27 08:25:00,44.0,34.1,29.87,SSW,201,1.0,1.0,68,0.00,,,0.00,LWC V2.10 B1813,2013-10-27 12:25:00,
2013-10-27 08:30:00,44.2,34.3,29.88,SSW,203,1.0,1.0,68,0.00,,,0.00,LWC V2.10 B1813,2013-10-27 12:30:00,
2013-10-27 08:34:00,44.2,33.9,29.88,SSW,207,0.0,3.0,67,0.00,,,0.00,LWC V2.10 B1813,2013-10-27 12:34:00,
2013-10-27 08:39:00,44.1,34.2,29.88,SSW,208,0.0,1.0,68,0.00,,,0.00,LWC V2.10 B1813,2013-10-27 12:39:00,
2013-10-27 08:44:00,44.0,33.8,29.88,NNE,19,2.0,2.0,67,0.00,,,0.00,LWC V2.10 B1813,2013-10-27 12:44:00,
2013-10-27 08:49:00,44.1,33.9,29.88,NNE,17,0.0,2.0,67,0.00,,,0.00,LWC V2.10 B1813,2013-10-27 12:49:00,
2013-10-27 08:54:00,44.1,33.5,29.88,NNE,19,2.0,5.0,66,0.00,,,0.00,LWC V2.10 B1813,2013-10-27 12:54:00,
2013-10-27 08:59:00,44.2,33.9,29.88,NNE,21,0.0,0.0,67,0.00,,,0.00,LWC V2.10 B1813,2013-10-27 12:59:00,
2013-10-27 09:04:00,44.2,33.6,29.89,NNE,21,0.0,1.0,66,0.00,,,0.00,LWC V2.10 B1813,2013-10-27 13:04:00,
2013-10-27 09:09:00,44.3,34.0,29.89,SE,146,0.0,1.0,67,0.00,,,0.00,LWC V2.10 B1813,2013-10-27 13:09:00,
2013-10-27 09:15:00,44.3,34.4,29.89,SW,222,4.0,4.0,68,0.00,,,0.00,LWC V2.10 B1813,2013-10-27 13:15:00,
2013-10-27 09:20:00,44.3,33.7,29.89,WSW,252,0.0,3.0,66,0.00,,,0.00,LWC V2.10 B1813,2013-10-27 13:20:00,
2013-10-27 09:25:00,44.3,33.7,29.89,WSW,239,2.0,2.0,66,0.00,,,0.00,LWC V2.10 B1813,2013-10-27 13:25:00,
2013-10-27 09:30:00,44.4,33.8,29.89,West,273,0.0,1.0,66,0.00,,,0.00,LWC V2.10 B1813,2013-10-27 13:30:00,
2013-10-27 09:35:00,44.5,33.9,29.89,North,5,2.0,2.0,66,0.00,,,0.00,LWC V2.10 B1813,2013-10-27 13:35:00,
2013-10-27 09:41:00,44.7,33.7,29.89,SW,232,4.0,8.0,65,0.00,,,0.00,LWC V2.10 B1813,2013-10-27 13:41:00,
2013-10-27 09:46:00,44.8,33.4,29.90,SE,138,3.0,6.0,64,0.00,,,0.00,LWC V2.10 B1813,2013-10-27 13:46:00,
2013-10-27 09:51:00,45.0,33.6,29.89,SW,223,4.0,6.0,64,0.00,,,0.00,LWC V2.10 B1813,2013-10-27 13:51:00,
2013-10-27 09:57:00,45.2,33.8,29.89,North,355,1.0,2.0,64,0.00,,,0.00,LWC V2.10 B1813,2013-10-27 13:57:00,
2013-10-27 10:02:00,45.4,33.9,29.89,West,261,3.0,3.0,64,0.00,,,0.00,LWC V2.10 B1813,2013-10-27 14:02:00,
2013-10-27 10:07:00,45.6,33.7,29.90,West,263,4.0,4.0,63,0.00,,,0.00,LWC V2.10 B1813,2013-10-27 14:07:00,
2013-10-27 10:13:00,45.6,33.3,29.90,WSW,249,2.0,6.0,62,0.00,,,0.00,LWC V2.10 B1813,2013-10-27 14:13:00,
2013-10-27 10:18:00,45.5,33.2,29.90,West,271,2.0,8.0,62,0.00,,,0.00,LWC V2.10 B1813,2013-10-27 14:18:00,
2013-10-27 10:23:00,45.5,33.2,29.91,SSW,202,4.0,4.0,62,0.00,,,0.00,LWC V2.10 B1813,2013-10-27 14:23:00,
2013-10-27 10:28:00,45.3,33.1,29.91,WSW,246,1.0,4.0,62,0.00,,,0.00,LWC V2.10 B1813,2013-10-27 14:28:00,
2013-10-27 10:33:00,45.3,33.1,29.91,SSE,157,0.0,4.0,62,0.00,,,0.00,LWC V2.10 B1813,2013-10-27 14:33:00,
2013-10-27 10:38:00,45.3,33.5,29.91,North,0,1.0,5.0,63,0.00,,,0.00,LWC V2.10 B1813,2013-10-27 14:38:00,
2013-10-27 10:43:00,45.3,33.5,29.91,NNE,27,2.0,4.0,63,0.00,,,0.00,LWC V2.10 B1813,2013-10-27 14:43:00,
2013-10-27 10:48:00,45.4,33.2,29.91,WSW,253,1.0,6.0,62,0.00,,,0.00,LWC V2.10 B1813,2013-10-27 14:48:00,
2013-10-27 10:53:00,45.6,33.7,29.91,WSW,250,1.0,2.0,63,0.00,,,0.00,LWC V2.10 B1813,2013-10-27 14:53:00,
2013-10-27 10:58:00,45.6,32.9,29.91,NNE,19,3.0,5.0,61,0.00,,,0.00,LWC V2.10 B1813,2013-10-27 14:58:00,
2013-10-27 11:03:00,45.6,33.3,29.91,East,82,0.0,3.0,62,0.00,,,0.00,LWC V2.10 B1813,2013-10-27 15:03:00,
2013-10-27 11:08:00,45.8,33.1,29.91,NNW,340,2.0,3.0,61,0.00,,,0.00,LWC V2.10 B1813,2013-10-27 15:08:00,
2013-10-27 11:13:00,45.8,32.3,29.91,West,280,1.0,5.0,59,0.00,,,0.00,LWC V2.10 B1813,2013-10-27 15:13:00,
2013-10-27 11:18:00,45.7,33.0,29.92,WSW,244,1.0,3.0,61,0.00,,,0.00,LWC V2.10 B1813,2013-10-27 15:18:00,
2013-10-27 11:23:00,45.8,33.1,29.92,SSE,153,1.0,7.0,61,0.00,,,0.00,LWC V2.10 B1813,2013-10-27 15:23:00,
2013-10-27 11:28:00,45.9,32.4,29.91,West,277,2.0,5.0,59,0.00,,,0.00,LWC V2.10 B1813,2013-10-27 15:28:00,
2013-10-27 11:33:00,46.1,31.7,29.91,WSW,245,0.0,4.0,57,0.00,,,0.00,LWC V2.10 B1813,2013-10-27 15:33:00,
2013-10-27 11:38:00,46.3,31.5,29.92,WSW,240,2.0,6.0,56,0.00,,,0.00,LWC V2.10 B1813,2013-10-27 15:38:00,
2013-10-27 11:44:00,46.4,32.4,29.92,WSW,244,1.0,4.0,58,0.00,,,0.00,LWC V2.10 B1813,2013-10-27 15:44:00,
2013-10-27 11:49:00,46.5,31.7,29.91,West,275,3.0,3.0,56,0.00,,,0.00,LWC V2.10 B1813,2013-10-27 15:49:00,
2013-10-27 11:54:00,46.8,32.4,29.92,WSW,238,4.0,5.0,57,0.00,,,0.00,LWC V2.10 B1813,2013-10-27 15:54:00,
2013-10-27 11:59:00,47.1,32.2,29.92,NNW,343,2.0,7.0,56,0.00,,,0.00,LWC V2.10 B1813,2013-10-27 15:59:00,
2013-10-27 12:04:00,47.2,32.3,29.91,West,274,5.0,6.0,56,0.00,,,0.00,LWC V2.10 B1813,2013-10-27 16:04:00,
2013-10-27 12:09:00,47.5,31.7,29.91,West,279,4.0,7.0,54,0.00,,,0.00,LWC V2.10 B1813,2013-10-27 16:09:00,
2013-10-27 12:14:00,47.6,32.2,29.91,West,270,2.0,8.0,55,0.00,,,0.00,LWC V2.10 B1813,2013-10-27 16:14:00,
2013-10-27 12:20:00,47.5,31.7,29.91,WSW,254,2.0,4.0,54,0.00,,,0.00,LWC V2.10 B1813,2013-10-27 16:20:00,
2013-10-27 12:25:00,47.6,31.8,29.92,SW,231,1.0,5.0,54,0.00,,,0.00,LWC V2.10 B1813,2013-10-27 16:25:00,
2013-10-27 12:31:00,47.6,30.9,29.91,WSW,254,6.0,9.0,52,0.00,,,0.00,LWC V2.10 B1813,2013-10-27 16:31:00,
2013-10-27 12:36:00,47.4,30.7,29.91,West,276,2.0,3.0,52,0.00,,,0.00,LWC V2.10 B1813,2013-10-27 16:36:00,
2013-10-27 12:41:00,47.3,30.6,29.91,NW,325,2.0,4.0,52,0.00,,,0.00,LWC V2.10 B1813,2013-10-27 16:41:00,
2013-10-27 12:46:00,47.4,30.7,29.91,WSW,247,1.0,2.0,52,0.00,,,0.00,LWC V2.10 B1813,2013-10-27 16:46:00,
2013-10-27 12:51:00,48.1,30.8,29.91,WNW,289,1.0,8.0,51,0.00,,,0.00,LWC V2.10 B1813,2013-10-27 16:51:00,
2013-10-27 12:56:00,48.4,32.1,29.90,NNE,22,4.0,5.0,53,0.00,,,0.00,LWC V2.10 B1813,2013-10-27 16:56:00,
2013-10-27 13:01:00,48.2,30.9,29.90,NNE,18,1.0,2.0,51,0.00,,,0.00,LWC V2.10 B1813,2013-10-27 17:01:00,
2013-10-27 13:07:00,48.3,30.5,29.90,NNE,24,4.0,10.0,50,0.00,,,0.00,LWC V2.10 B1813,2013-10-27 17:07:00,
2013-10-27 13:12:00,47.9,29.7,29.91,NNW,346,0.0,5.0,49,0.00,,,0.00,LWC V2.10 B1813,2013-10-27 17:12:00,
2013-10-27 13:18:00,47.9,30.7,29.91,NW,313,0.0,2.0,51,0.00,,,0.00,LWC V2.10 B1813,2013-10-27 17:18:00,
2013-10-27 13:23:00,47.9,29.7,29.91,NW,304,3.0,4.0,49,0.00,,,0.00,LWC V2.10 B1813,2013-10-27 17:23:00,
2013-10-27 13:28:00,48.2,30.4,29.91,West,261,1.0,2.0,50,0.00,,,0.00,LWC V2.10 B1813,2013-10-27 17:28:00,
2013-10-27 13:33:00,48.4,29.6,29.90,SW,217,1.0,7.0,48,0.00,,,0.00,LWC V2.10 B1813,2013-10-27 17:33:00,
2013-10-27 13:38:00,48.4,29.6,29.90,North,355,4.0,5.0,48,0.00,,,0.00,LWC V2.10 B1813,2013-10-27 17:38:00,
2013-10-27 13:43:00,48.4,29.1,29.91,SSW,205,4.0,10.0,47,0.00,,,0.00,LWC V2.10 B1813,2013-10-27 17:43:00,
2013-10-27 13:48:00,48.3,29.5,29.91,ESE,123,2.0,6.0,48,0.00,,,0.00,LWC V2.10 B1813,2013-10-27 17:48:00,
2013-10-27 13:53:00,48.0,29.3,29.91,North,5,3.0,5.0,48,0.00,,,0.00,LWC V2.10 B1813,2013-10-27 17:53:00,
2013-10-27 13:58:00,48.2,29.9,29.91,NE,40,0.0,2.0,49,0.00,,,0.00,LWC V2.10 B1813,2013-10-27 17:58:00,
2013-10-27 14:03:00,48.4,30.6,29.91,NE,34,1.0,4.0,50,0.00,,,0.00,LWC V2.10 B1813,2013-10-27 18:03:00,
2013-10-27 14:08:00,48.5,30.7,29.91,ESE,113,1.0,4.0,50,0.00,,,0.00,LWC V2.10 B1813,2013-10-27 18:08:00,
2013-10-27 14:14:00,48.6,31.3,29.91,North,5,4.0,8.0,51,0.00,,,0.00,LWC V2.10 B1813,2013-10-27 18:14:00,
2013-10-27 14:19:00,48.3,30.5,29.91,South,172,3.0,3.0,50,0.00,,,0.00,LWC V2.10 B1813,2013-10-27 18:19:00,
2013-10-27 14:25:00,48.0,31.7,29.91,South,177,0.0,1.0,53,0.00,,,0.00,LWC V2.10 B1813,2013-10-27 18:25:00,
2013-10-27 14:30:00,48.3,31.5,29.92,East,89,1.0,5.0,52,0.00,,,0.00,LWC V2.10 B1813,2013-10-27 18:30:00,
2013-10-27 14:35:00,48.1,31.8,29.92,NE,37,1.0,3.0,53,0.00,,,0.00,LWC V2.10 B1813,2013-10-27 18:35:00,
2013-10-27 14:40:00,47.8,30.1,29.92,North,355,8.0,17.0,50,0.00,,,0.00,LWC V2.10 B1813,2013-10-27 18:40:00,
2013-10-27 14:45:00,47.5,30.8,29.92,NNE,22,2.0,2.0,52,0.00,,,0.00,LWC V2.10 B1813,2013-10-27 18:45:00,
2013-10-27 14:51:00,47.6,30.9,29.92,North,355,1.0,3.0,52,0.00,,,0.00,LWC V2.10 B1813,2013-10-27 18:51:00,
2013-10-27 14:56:00,47.9,32.1,29.92,SSW,205,5.0,5.0,54,0.00,,,0.00,LWC V2.10 B1813,2013-10-27 18:56:00,
2013-10-27 15:01:00,48.4,33.4,29.92,SW,225,3.0,9.0,56,0.00,,,0.00,LWC V2.10 B1813,2013-10-27 19:01:00,
2013-10-27 15:07:00,48.9,32.1,29.92,WSW,249,1.0,4.0,52,0.00,,,0.00,LWC V2.10 B1813,2013-10-27 19:07:00,
2013-10-27 15:12:00,48.8,30.0,29.92,WSW,241,4.0,7.0,48,0.00,,,0.00,LWC V2.10 B1813,2013-10-27 19:12:00,
2013-10-27 15:17:00,48.7,30.4,29.92,SSW,205,3.0,5.0,49,0.00,,,0.00,LWC V2.10 B1813,2013-10-27 19:17:00,
2013-10-27 15:22:00,48.3,31.0,29.92,North,0,2.0,6.0,51,0.00,,,0.00,LWC V2.10 B1813,2013-10-27 19:22:00,
2013-10-27 15:28:00,47.8,30.6,29.92,WSW,252,2.0,3.0,51,0.00,,,0.00,LWC V2.10 B1813,2013-10-27 19:28:00,
2013-10-27 15:33:00,47.6,30.4,29.92,North,0,3.0,4.0,51,0.00,,,0.00,LWC V2.10 B1813,2013-10-27 19:33:00,
2013-10-27 15:38:00,47.8,31.0,29.93,WSW,251,1.0,7.0,52,0.00,,,0.00,LWC V2.10 B1813,2013-10-27 19:38:00,
2013-10-27 15:43:00,48.2,31.4,29.93,SW,234,4.0,7.0,52,0.00,,,0.00,LWC V2.10 B1813,2013-10-27 19:43:00,
2013-10-27 15:48:00,48.1,30.8,29.93,WSW,246,2.0,4.0,51,0.00,,,0.00,LWC V2.10 B1813,2013-10-27 19:48:00,
2013-10-27 15:54:00,47.4,30.7,29.94,WSW,250,3.0,3.0,52,0.00,,,0.00,LWC V2.10 B1813,2013-10-27 19:54:00,
2013-10-27 15:59:00,47.0,30.8,29.93,West,275,2.0,3.0,53,0.00,,,0.00,LWC V2.10 B1813,2013-10-27 19:59:00,
2013-10-27 16:04:00,46.9,31.1,29.94,ESE,117,1.0,4.0,54,0.00,,,0.00,LWC V2.10 B1813,2013-10-27 20:04:00,
2013-10-27 16:09:00,47.0,31.7,29.94,SSW,192,1.0,7.0,55,0.00,,,0.00,LWC V2.10 B1813,2013-10-27 20:09:00,
2013-10-27 16:14:00,46.9,31.1,29.94,West,279,3.0,7.0,54,0.00,,,0.00,LWC V2.10 B1813,2013-10-27 20:14:00,
2013-10-27 16:19:00,46.7,30.9,29.94,SSW,205,7.0,7.0,54,0.00,,,0.00,LWC V2.10 B1813,2013-10-27 20:19:00,
2013-10-27 16:24:00,46.4,31.1,29.94,WSW,246,2.0,2.0,55,0.00,,,0.00,LWC V2.10 B1813,2013-10-27 20:24:00,
2013-10-27 16:29:00,46.4,30.7,29.94,WNW,289,4.0,8.0,54,0.00,,,0.00,LWC V2.10 B1813,2013-10-27 20:29:00,
2013-10-27 16:34:00,46.5,30.8,29.94,WNW,298,1.0,3.0,54,0.00,,,0.00,LWC V2.10 B1813,2013-10-27 20:34:00,
2013-10-27 16:39:00,46.6,30.9,29.95,WSW,253,1.0,4.0,54,0.00,,,0.00,LWC V2.10 B1813,2013-10-27 20:39:00,
2013-10-27 16:44:00,46.6,30.4,29.94,WSW,256,1.0,5.0,53,0.00,,,0.00,LWC V2.10 B1813,2013-10-27 20:44:00,
2013-10-27 16:49:00,46.6,31.3,29.94,SW,216,1.0,5.0,55,0.00,,,0.00,LWC V2.10 B1813,2013-10-27 20:49:00,
2013-10-27 16:54:00,46.5,31.7,29.95,NW,321,1.0,1.0,56,0.00,,,0.00,LWC V2.10 B1813,2013-10-27 20:54:00,
2013-10-27 16:59:00,46.3,31.5,29.95,North,0,4.0,4.0,56,0.00,,,0.00,LWC V2.10 B1813,2013-10-27 20:59:00,
2013-10-27 17:04:00,46.0,31.6,29.95,North,9,2.0,5.0,57,0.00,,,0.00,LWC V2.10 B1813,2013-10-27 21:04:00,
2013-10-27 17:09:00,45.7,32.2,29.96,NNW,329,2.0,5.0,59,0.00,,,0.00,LWC V2.10 B1813,2013-10-27 21:09:00,
2013-10-27 17:14:00,45.6,31.7,29.95,NW,310,5.0,11.0,58,0.00,,,0.00,LWC V2.10 B1813,2013-10-27 21:14:00,
2013-10-27 17:20:00,45.3,31.4,29.96,SSW,213,0.0,0.0,58,0.00,,,0.00,LWC V2.10 B1813,2013-10-27 21:20:00,
2013-10-27 17:25:00,44.9,31.5,29.96,NE,34,0.0,3.0,59,0.00,,,0.00,LWC V2.10 B1813,2013-10-27 21:25:00,
2013-10-27 17:30:00,44.4,31.4,29.96,SSE,155,1.0,2.0,60,0.00,,,0.00,LWC V2.10 B1813,2013-10-27 21:30:00,
2013-10-27 17:35:00,44.1,31.1,29.97,NE,41,10.0,10.0,60,0.00,,,0.00,LWC V2.10 B1813,2013-10-27 21:35:00,
2013-10-27 17:40:00,44.3,31.3,29.97,WNW,296,1.0,4.0,60,0.00,,,0.00,LWC V2.10 B1813,2013-10-27 21:40:00,
2013-10-27 17:45:00,44.0,31.0,29.97,SW,226,1.0,9.0,60,0.00,,,0.00,LWC V2.10 B1813,2013-10-27 21:45:00,
2013-10-27 17:50:00,43.9,30.9,29.98,West,268,0.0,2.0,60,0.00,,,0.00,LWC V2.10 B1813,2013-10-27 21:50:00,
2013-10-27 17:55:00,43.6,30.6,29.97,East,94,0.0,0.0,60,0.00,,,0.00,LWC V2.10 B1813,2013-10-27 21:55:00,
2013-10-27 18:01:00,43.1,31.0,29.98,SSW,213,6.0,6.0,62,0.00,,,0.00,LWC V2.10 B1813,2013-10-27 22:01:00,
2013-10-27 18:06:00,43.1,31.0,29.98,North,9,0.0,7.0,62,0.00,,,0.00,LWC V2.10 B1813,2013-10-27 22:06:00,
2013-10-27 18:11:00,43.3,30.8,29.98,NE,49,0.0,4.0,61,0.00,,,0.00,LWC V2.10 B1813,2013-10-27 22:11:00,
2013-10-27 18:16:00,43.3,30.8,29.98,SSE,167,0.0,2.0,61,0.00,,,0.00,LWC V2.10 B1813,2013-10-27 22:16:00,
2013-10-27 18:21:00,42.5,30.8,29.99,South,178,5.0,5.0,63,0.00,,,0.00,LWC V2.10 B1813,2013-10-27 22:21:00,
2013-10-27 18:26:00,43.0,30.9,29.99,North,0,1.0,10.0,62,0.00,,,0.00,LWC V2.10 B1813,2013-10-27 22:26:00,
2013-10-27 18:31:00,43.0,30.9,29.99,East,82,1.0,2.0,62,0.00,,,0.00,LWC V2.10 B1813,2013-10-27 22:31:00,
2013-10-27 18:36:00,42.9,30.8,30.00,East,82,1.0,1.0,62,0.00,,,0.00,LWC V2.10 B1813,2013-10-27 22:36:00,
2013-10-27 18:41:00,42.0,30.3,30.00,NNE,33,0.0,1.0,63,0.00,,,0.00,LWC V2.10 B1813,2013-10-27 22:41:00,
2013-10-27 18:46:00,41.2,30.3,30.01,WNW,294,0.0,2.0,65,0.00,,,0.00,LWC V2.10 B1813,2013-10-27 22:46:00,
2013-10-27 18:51:00,40.3,30.6,30.01,WNW,294,0.0,0.0,68,0.00,,,0.00,LWC V2.10 B1813,2013-10-27 22:51:00,
2013-10-27 18:57:00,40.2,31.2,30.01,WSW,249,1.0,4.0,70,0.00,,,0.00,LWC V2.10 B1813,2013-10-27 22:57:00,
2013-10-27 19:02:00,41.7,31.6,30.01,NE,37,3.0,5.0,67,0.00,,,0.00,LWC V2.10 B1813,2013-10-27 23:02:00,
2013-10-27 19:07:00,42.6,31.7,30.01,SE,133,2.0,2.0,65,0.00,,,0.00,LWC V2.10 B1813,2013-10-27 23:07:00,
2013-10-27 19:12:00,42.9,31.6,30.01,NW,325,2.0,3.0,64,0.00,,,0.00,LWC V2.10 B1813,2013-10-27 23:12:00,
2013-10-27 19:17:00,42.2,31.3,30.01,South,171,5.0,5.0,65,0.00,,,0.00,LWC V2.10 B1813,2013-10-27 23:17:00,
2013-10-27 19:22:00,42.4,31.9,30.01,NNE,14,0.0,2.0,66,0.00,,,0.00,LWC V2.10 B1813,2013-10-27 23:22:00,
2013-10-27 19:28:00,42.5,32.0,30.01,NNE,19,2.0,3.0,66,0.00,,,0.00,LWC V2.10 B1813,2013-10-27 23:28:00,
2013-10-27 19:34:00,42.2,31.7,30.01,NNE,28,0.0,1.0,66,0.00,,,0.00,LWC V2.10 B1813,2013-10-27 23:34:00,
2013-10-27 19:39:00,41.8,31.3,30.02,NNE,28,0.0,0.0,66,0.00,,,0.00,LWC V2.10 B1813,2013-10-27 23:39:00,
2013-10-27 19:44:00,41.6,31.5,30.02,ESE,113,2.0,3.0,67,0.00,,,0.00,LWC V2.10 B1813,2013-10-27 23:44:00,
2013-10-27 19:49:00,41.4,31.3,30.02,NNW,344,0.0,1.0,67,0.00,,,0.00,LWC V2.10 B1813,2013-10-27 23:49:00,
2013-10-27 19:54:00,40.7,31.3,30.02,North,5,0.0,2.0,69,0.00,,,0.00,LWC V2.10 B1813,2013-10-27 23:54:00,
2013-10-27 19:59:00,40.8,31.4,30.03,South,190,0.0,1.0,69,0.00,,,0.00,LWC V2.10 B1813,2013-10-27 23:59:00,
2013-10-27 20:05:00,41.2,31.5,30.03,NW,321,1.0,1.0,68,0.00,,,0.00,LWC V2.10 B1813,2013-10-28 00:05:00,
2013-10-27 20:10:00,41.0,31.3,30.03,ENE,67,1.0,2.0,68,0.00,,,0.00,LWC V2.10 B1813,2013-10-28 00:10:00,
2013-10-27 20:16:00,40.2,30.9,30.03,South,178,6.0,6.0,69,0.00,,,0.00,LWC V2.10 B1813,2013-10-28 00:16:00,
2013-10-27 20:21:00,40.6,31.6,30.03,SW,234,2.0,10.0,70,0.00,,,0.00,LWC V2.10 B1813,2013-10-28 00:21:00,
2013-10-27 20:26:00,40.9,31.5,30.03,WSW,238,1.0,1.0,69,0.00,,,0.00,LWC V2.10 B1813,2013-10-28 00:26:00,
2013-10-27 20:31:00,41.1,31.7,30.03,SSE,156,0.0,2.0,69,0.00,,,0.00,LWC V2.10 B1813,2013-10-28 00:31:00,
2013-10-27 20:36:00,40.9,31.5,30.04,South,173,8.0,8.0,69,0.00,,,0.00,LWC V2.10 B1813,2013-10-28 00:36:00,
2013-10-27 20:41:00,41.1,31.7,30.03,WNW,300,2.0,4.0,69,0.00,,,0.00,LWC V2.10 B1813,2013-10-28 00:41:00,
2013-10-27 20:46:00,41.5,31.7,30.03,WSW,250,0.0,1.0,68,0.00,,,0.00,LWC V2.10 B1813,2013-10-28 00:46:00,
2013-10-27 20:51:00,41.6,31.5,30.03,NNW,334,4.0,5.0,67,0.00,,,0.00,LWC V2.10 B1813,2013-10-28 00:51:00,
2013-10-27 20:56:00,41.6,31.8,30.04,WSW,257,1.0,1.0,68,0.00,,,0.00,LWC V2.10 B1813,2013-10-28 00:56:00,
2013-10-27 21:01:00,41.7,31.6,30.04,North,0,0.0,1.0,67,0.00,,,0.00,LWC V2.10 B1813,2013-10-28 01:01:00,
2013-10-27 21:06:00,41.5,31.4,30.05,East,99,0.0,2.0,67,0.00,,,0.00,LWC V2.10 B1813,2013-10-28 01:06:00,
2013-10-27 21:11:00,40.8,31.4,30.05,NNW,344,5.0,6.0,69,0.00,,,0.00,LWC V2.10 B1813,2013-10-28 01:11:00,
2013-10-27 21:17:00,41.1,31.7,30.05,West,280,2.0,10.0,69,0.00,,,0.00,LWC V2.10 B1813,2013-10-28 01:17:00,
2013-10-27 21:22:00,41.0,31.3,30.05,West,274,1.0,1.0,68,0.00,,,0.00,LWC V2.10 B1813,2013-10-28 01:22:00,
2013-10-27 21:27:00,41.3,31.9,30.05,SW,231,2.0,2.0,69,0.00,,,0.00,LWC V2.10 B1813,2013-10-28 01:27:00,
2013-10-27 21:32:00,41.1,31.4,30.06,North,0,0.0,3.0,68,0.00,,,0.00,LWC V2.10 B1813,2013-10-28 01:32:00,
2013-10-27 21:37:00,40.1,31.1,30.06,North,0,0.0,1.0,70,0.00,,,0.00,LWC V2.10 B1813,2013-10-28 01:37:00,
2013-10-27 21:42:00,39.4,30.8,30.06,North,0,1.0,1.0,71,0.00,,,0.00,LWC V2.10 B1813,2013-10-28 01:42:00,
2013-10-27 21:48:00,38.5,30.3,30.06,NE,46,2.0,2.0,72,0.00,,,0.00,LWC V2.10 B1813,2013-10-28 01:48:00,
2013-10-27 21:53:00,37.7,30.2,30.07,NW,309,2.0,2.0,74,0.00,,,0.00,LWC V2.10 B1813,2013-10-28 01:53:00,
2013-10-27 21:58:00,37.5,30.3,30.07,North,0,0.0,1.0,75,0.00,,,0.00,LWC V2.10 B1813,2013-10-28 01:58:00,
2013-10-27 22:04:00,37.2,30.3,30.07,North,0,0.0,0.0,76,0.00,,,0.00,LWC V2.10 B1813,2013-10-28 02:04:00,
2013-10-27 22:09:00,37.0,30.5,30.07,ENE,65,3.0,4.0,77,0.00,,,0.00,LWC V2.10 B1813,2013-10-28 02:09:00,
2013-10-27 22:14:00,38.4,31.5,30.06,NNW,328,2.0,2.0,76,0.00,,,0.00,LWC V2.10 B1813,2013-10-28 02:14:00,
2013-10-27 22:19:00,37.7,30.5,30.07,NNW,328,0.0,0.0,75,0.00,,,0.00,LWC V2.10 B1813,2013-10-28 02:19:00,
2013-10-27 22:24:00,36.6,29.4,30.07,SW,233,1.0,4.0,75,0.00,,,0.00,LWC V2.10 B1813,2013-10-28 02:24:00,
2013-10-27 22:29:00,36.0,29.5,30.07,NNW,346,1.0,1.0,77,0.00,,,0.00,LWC V2.10 B1813,2013-10-28 02:29:00,
2013-10-27 22:34:00,35.8,29.9,30.07,SSW,200,3.0,4.0,79,0.00,,,0.00,LWC V2.10 B1813,2013-10-28 02:34:00,
2013-10-27 22:40:00,36.9,31.0,30.07,ENE,59,2.0,2.0,79,0.00,,,0.00,LWC V2.10 B1813,2013-10-28 02:40:00,
2013-10-27 22:46:00,37.0,30.8,30.07,ESE,123,2.0,3.0,78,0.00,,,0.00,LWC V2.10 B1813,2013-10-28 02:46:00,
2013-10-27 22:51:00,37.0,30.5,30.07,South,174,0.0,0.0,77,0.00,,,0.00,LWC V2.10 B1813,2013-10-28 02:51:00,
2013-10-27 22:56:00,36.7,30.2,30.07,South,171,0.0,2.0,77,0.00,,,0.00,LWC V2.10 B1813,2013-10-28 02:56:00,
2013-10-27 23:01:00,36.2,29.7,30.07,South,178,3.0,4.0,77,0.00,,,0.00,LWC V2.10 B1813,2013-10-28 03:01:00,
2013-10-27 23:06:00,36.1,30.2,30.08,NNW,336,0.0,1.0,79,0.00,,,0.00,LWC V2.10 B1813,2013-10-28 03:06:00,
2013-10-27 23:11:00,36.3,30.4,30.07,SSE,159,0.0,2.0,79,0.00,,,0.00,LWC V2.10 B1813,2013-10-28 03:11:00,
2013-10-27 23:16:00,36.3,30.4,30.07,SSE,160,0.0,1.0,79,0.00,,,0.00,LWC V2.10 B1813,2013-10-28 03:16:00,
2013-10-27 23:21:00,36.4,30.2,30.07,SSE,160,0.0,0.0,78,0.00,,,0.00,LWC V2.10 B1813,2013-10-28 03:21:00,
2013-10-27 23:26:00,36.3,30.1,30.07,South,180,2.0,2.0,78,0.00,,,0.00,LWC V2.10 B1813,2013-10-28 03:26:00,
2013-10-27 23:31:00,36.0,29.8,30.07,South,180,1.0,2.0,78,0.00,,,0.00,LWC V2.10 B1813,2013-10-28 03:31:00,
2013-10-27 23:36:00,35.8,29.6,30.08,South,180,0.0,0.0,78,0.00,,,0.00,LWC V2.10 B1813,2013-10-28 03:36:00,
2013-10-27 23:41:00,35.6,29.4,30.08,South,180,0.0,1.0,78,0.00,,,0.00,LWC V2.10 B1813,2013-10-28 03:41:00,
2013-10-27 23:46:00,35.2,28.7,30.08,South,180,0.0,0.0,77,0.00,,,0.00,LWC V2.10 B1813,2013-10-28 03:46:00,
2013-10-27 23:51:00,34.9,28.4,30.08,South,180,0.0,1.0,77,0.00,,,0.00,LWC V2.10 B1813,2013-10-28 03:51:00,
2013-10-27 23:56:00,34.4,28.3,30.08,NE,42,0.0,1.0,78,0.00,,,0.00,LWC V2.10 B1813,2013-10-28 03:56:00,